sensor_id;sensor_type;location;lat;lon;timestamp;temperature;humidity
28823;DHT22;15961;54.678;9.110;2022-07-10T00:01:44;12.30;99.90
28823;DHT22;15961;54.678;9.110;2022-07-10T00:04:10;12.30;99.90
28823;DHT22;15961;54.678;9.110;2022-07-10T00:06:36;12.30;99.90
28823;DHT22;15961;54.678;9.110;2022-07-10T00:09:01;12.40;99.90
28823;DHT22;15961;54.678;9.110;2022-07-10T00:11:27;12.50;99.90
28823;DHT22;15961;54.678;9.110;2022-07-10T00:13:52;12.60;99.90
28823;DHT22;15961;54.678;9.110;2022-07-10T00:16:18;12.60;99.90
28823;DHT22;15961;54.678;9.110;2022-07-10T00:18:43;12.60;99.90
28823;DHT22;15961;54.678;9.110;2022-07-10T00:21:09;12.60;99.90
28823;DHT22;15961;54.678;9.110;2022-07-10T00:23:35;12.50;99.90
28823;DHT22;15961;54.678;9.110;2022-07-10T00:26:00;12.40;99.90
28823;DHT22;15961;54.678;9.110;2022-07-10T00:28:26;12.40;99.90
28823;DHT22;15961;54.678;9.110;2022-07-10T00:30:51;12.30;99.90
28823;DHT22;15961;54.678;9.110;2022-07-10T00:33:17;12.30;99.90
28823;DHT22;15961;54.678;9.110;2022-07-10T00:35:42;12.40;99.90
28823;DHT22;15961;54.678;9.110;2022-07-10T00:38:08;12.40;99.90
28823;DHT22;15961;54.678;9.110;2022-07-10T00:40:33;12.50;99.90
28823;DHT22;15961;54.678;9.110;2022-07-10T00:42:59;12.50;99.90
28823;DHT22;15961;54.678;9.110;2022-07-10T00:45:25;12.60;99.90
28823;DHT22;15961;54.678;9.110;2022-07-10T00:47:50;12.60;99.90
28823;DHT22;15961;54.678;9.110;2022-07-10T00:50:16;12.60;99.90
28823;DHT22;15961;54.678;9.110;2022-07-10T00:52:41;12.50;99.90
28823;DHT22;15961;54.678;9.110;2022-07-10T00:55:08;12.50;99.90
28823;DHT22;15961;54.678;9.110;2022-07-10T00:57:35;12.50;99.90
28823;DHT22;15961;54.678;9.110;2022-07-10T01:00:02;12.40;99.90
28823;DHT22;15961;54.678;9.110;2022-07-10T01:02:28;12.30;99.90
28823;DHT22;15961;54.678;9.110;2022-07-10T01:04:56;12.30;99.90
28823;DHT22;15961;54.678;9.110;2022-07-10T01:07:22;12.30;99.90
28823;DHT22;15961;54.678;9.110;2022-07-10T01:09:47;12.30;99.90
28823;DHT22;15961;54.678;9.110;2022-07-10T01:12:13;12.40;99.90
28823;DHT22;15961;54.678;9.110;2022-07-10T01:14:41;12.40;99.90
28823;DHT22;15961;54.678;9.110;2022-07-10T01:17:08;12.50;99.90
28823;DHT22;15961;54.678;9.110;2022-07-10T01:19:34;12.60;99.90
28823;DHT22;15961;54.678;9.110;2022-07-10T01:22:00;12.70;99.90
28823;DHT22;15961;54.678;9.110;2022-07-10T01:24:25;12.60;99.90
28823;DHT22;15961;54.678;9.110;2022-07-10T01:26:51;12.50;99.90
28823;DHT22;15961;54.678;9.110;2022-07-10T01:29:17;12.40;99.90
28823;DHT22;15961;54.678;9.110;2022-07-10T01:31:42;12.30;99.90
28823;DHT22;15961;54.678;9.110;2022-07-10T01:34:09;12.30;99.90
28823;DHT22;15961;54.678;9.110;2022-07-10T01:36:35;12.20;99.90
28823;DHT22;15961;54.678;9.110;2022-07-10T01:39:01;12.10;99.90
28823;DHT22;15961;54.678;9.110;2022-07-10T01:41:27;12.10;99.90
28823;DHT22;15961;54.678;9.110;2022-07-10T01:43:52;12.10;99.90
28823;DHT22;15961;54.678;9.110;2022-07-10T01:46:18;12.10;99.90
28823;DHT22;15961;54.678;9.110;2022-07-10T01:48:44;12.20;99.90
28823;DHT22;15961;54.678;9.110;2022-07-10T01:51:11;12.00;99.90
28823;DHT22;15961;54.678;9.110;2022-07-10T01:53:37;12.10;99.90
28823;DHT22;15961;54.678;9.110;2022-07-10T01:56:05;12.20;99.90
28823;DHT22;15961;54.678;9.110;2022-07-10T01:58:31;12.10;99.90
28823;DHT22;15961;54.678;9.110;2022-07-10T02:00:57;12.10;99.90
28823;DHT22;15961;54.678;9.110;2022-07-10T02:03:23;11.90;99.90
28823;DHT22;15961;54.678;9.110;2022-07-10T02:06:07;11.80;99.90
28823;DHT22;15961;54.678;9.110;2022-07-10T02:08:33;11.90;99.90
28823;DHT22;15961;54.678;9.110;2022-07-10T02:10:58;12.00;99.90
28823;DHT22;15961;54.678;9.110;2022-07-10T02:13:24;12.00;99.90
28823;DHT22;15961;54.678;9.110;2022-07-10T02:15:53;12.10;99.90
28823;DHT22;15961;54.678;9.110;2022-07-10T02:18:19;12.10;99.90
28823;DHT22;15961;54.678;9.110;2022-07-10T02:20:45;12.20;99.90
28823;DHT22;15961;54.678;9.110;2022-07-10T02:23:10;12.30;99.90
28823;DHT22;15961;54.678;9.110;2022-07-10T02:25:36;12.30;99.90
28823;DHT22;15961;54.678;9.110;2022-07-10T02:28:02;12.30;99.90
28823;DHT22;15961;54.678;9.110;2022-07-10T02:30:27;12.20;99.90
28823;DHT22;15961;54.678;9.110;2022-07-10T02:32:53;12.30;99.90
28823;DHT22;15961;54.678;9.110;2022-07-10T02:35:19;12.30;99.90
28823;DHT22;15961;54.678;9.110;2022-07-10T02:37:44;12.40;99.90
28823;DHT22;15961;54.678;9.110;2022-07-10T02:40:10;12.50;99.90
28823;DHT22;15961;54.678;9.110;2022-07-10T02:42:36;12.50;99.90
28823;DHT22;15961;54.678;9.110;2022-07-10T02:45:02;12.60;99.90
28823;DHT22;15961;54.678;9.110;2022-07-10T02:47:28;12.60;99.90
28823;DHT22;15961;54.678;9.110;2022-07-10T02:49:53;12.60;99.90
28823;DHT22;15961;54.678;9.110;2022-07-10T02:52:19;12.50;99.90
28823;DHT22;15961;54.678;9.110;2022-07-10T02:54:44;12.50;99.90
28823;DHT22;15961;54.678;9.110;2022-07-10T02:57:10;12.40;99.90
28823;DHT22;15961;54.678;9.110;2022-07-10T02:59:35;12.40;99.90
28823;DHT22;15961;54.678;9.110;2022-07-10T03:02:01;12.30;99.90
28823;DHT22;15961;54.678;9.110;2022-07-10T03:04:27;12.40;99.90
28823;DHT22;15961;54.678;9.110;2022-07-10T03:06:53;12.40;99.90
28823;DHT22;15961;54.678;9.110;2022-07-10T03:09:19;12.50;99.90
28823;DHT22;15961;54.678;9.110;2022-07-10T03:11:44;12.40;99.90
28823;DHT22;15961;54.678;9.110;2022-07-10T03:14:10;12.40;99.90
28823;DHT22;15961;54.678;9.110;2022-07-10T03:16:36;12.40;99.90
28823;DHT22;15961;54.678;9.110;2022-07-10T03:19:01;12.50;99.90
28823;DHT22;15961;54.678;9.110;2022-07-10T03:21:27;12.50;99.90
28823;DHT22;15961;54.678;9.110;2022-07-10T03:23:53;12.60;99.90
28823;DHT22;15961;54.678;9.110;2022-07-10T03:26:18;12.60;99.90
28823;DHT22;15961;54.678;9.110;2022-07-10T03:28:44;12.60;99.90
28823;DHT22;15961;54.678;9.110;2022-07-10T03:31:09;12.70;99.90
28823;DHT22;15961;54.678;9.110;2022-07-10T03:33:35;12.60;99.90
28823;DHT22;15961;54.678;9.110;2022-07-10T03:36:00;12.50;99.90
28823;DHT22;15961;54.678;9.110;2022-07-10T03:38:30;12.50;99.90
28823;DHT22;15961;54.678;9.110;2022-07-10T03:40:56;12.40;99.90
28823;DHT22;15961;54.678;9.110;2022-07-10T03:43:21;12.40;99.90
28823;DHT22;15961;54.678;9.110;2022-07-10T03:45:47;12.40;99.90
28823;DHT22;15961;54.678;9.110;2022-07-10T03:48:12;12.30;99.90
28823;DHT22;15961;54.678;9.110;2022-07-10T03:50:38;12.30;99.90
28823;DHT22;15961;54.678;9.110;2022-07-10T03:53:03;12.20;99.90
28823;DHT22;15961;54.678;9.110;2022-07-10T03:55:29;12.20;99.90
28823;DHT22;15961;54.678;9.110;2022-07-10T03:57:55;12.10;99.90
28823;DHT22;15961;54.678;9.110;2022-07-10T04:00:27;12.10;99.90
28823;DHT22;15961;54.678;9.110;2022-07-10T04:02:57;12.10;99.90
28823;DHT22;15961;54.678;9.110;2022-07-10T04:05:24;12.10;99.90
28823;DHT22;15961;54.678;9.110;2022-07-10T04:07:50;12.10;99.90
28823;DHT22;15961;54.678;9.110;2022-07-10T04:10:16;12.10;99.90
28823;DHT22;15961;54.678;9.110;2022-07-10T04:12:42;12.10;99.90
28823;DHT22;15961;54.678;9.110;2022-07-10T04:15:08;12.30;99.90
28823;DHT22;15961;54.678;9.110;2022-07-10T04:17:33;12.40;99.90
28823;DHT22;15961;54.678;9.110;2022-07-10T04:19:59;12.50;99.90
28823;DHT22;15961;54.678;9.110;2022-07-10T04:22:26;12.70;99.90
28823;DHT22;15961;54.678;9.110;2022-07-10T04:24:52;12.60;99.90
28823;DHT22;15961;54.678;9.110;2022-07-10T04:27:17;12.70;99.90
28823;DHT22;15961;54.678;9.110;2022-07-10T04:29:43;12.70;99.90
28823;DHT22;15961;54.678;9.110;2022-07-10T04:32:09;12.80;99.90
28823;DHT22;15961;54.678;9.110;2022-07-10T04:34:35;12.90;99.90
28823;DHT22;15961;54.678;9.110;2022-07-10T04:37:00;13.00;99.90
28823;DHT22;15961;54.678;9.110;2022-07-10T04:39:26;13.10;99.90
28823;DHT22;15961;54.678;9.110;2022-07-10T04:41:52;13.10;99.90
28823;DHT22;15961;54.678;9.110;2022-07-10T04:44:18;13.20;99.90
28823;DHT22;15961;54.678;9.110;2022-07-10T04:46:44;13.20;99.90
28823;DHT22;15961;54.678;9.110;2022-07-10T04:49:09;13.10;99.90
28823;DHT22;15961;54.678;9.110;2022-07-10T04:51:35;13.10;99.90
28823;DHT22;15961;54.678;9.110;2022-07-10T04:54:01;13.10;99.90
28823;DHT22;15961;54.678;9.110;2022-07-10T04:56:26;13.30;99.90
28823;DHT22;15961;54.678;9.110;2022-07-10T04:58:52;13.40;99.90
28823;DHT22;15961;54.678;9.110;2022-07-10T05:01:17;13.50;99.90
28823;DHT22;15961;54.678;9.110;2022-07-10T05:03:43;13.60;99.90
28823;DHT22;15961;54.678;9.110;2022-07-10T05:06:09;13.70;99.90
28823;DHT22;15961;54.678;9.110;2022-07-10T05:08:34;13.70;99.90
28823;DHT22;15961;54.678;9.110;2022-07-10T05:11:00;13.70;99.90
28823;DHT22;15961;54.678;9.110;2022-07-10T05:13:25;13.70;99.90
28823;DHT22;15961;54.678;9.110;2022-07-10T05:15:51;13.70;99.90
28823;DHT22;15961;54.678;9.110;2022-07-10T05:18:16;13.70;99.90
28823;DHT22;15961;54.678;9.110;2022-07-10T05:20:42;13.80;99.90
28823;DHT22;15961;54.678;9.110;2022-07-10T05:23:09;13.90;99.90
28823;DHT22;15961;54.678;9.110;2022-07-10T05:25:35;13.90;99.90
28823;DHT22;15961;54.678;9.110;2022-07-10T05:28:03;14.00;99.90
28823;DHT22;15961;54.678;9.110;2022-07-10T05:30:29;14.10;99.90
28823;DHT22;15961;54.678;9.110;2022-07-10T05:32:55;14.10;99.90
28823;DHT22;15961;54.678;9.110;2022-07-10T05:35:20;14.00;99.90
28823;DHT22;15961;54.678;9.110;2022-07-10T05:37:46;14.00;99.90
28823;DHT22;15961;54.678;9.110;2022-07-10T05:40:12;13.90;99.90
28823;DHT22;15961;54.678;9.110;2022-07-10T05:42:37;14.00;99.90
28823;DHT22;15961;54.678;9.110;2022-07-10T05:45:03;14.30;99.90
28823;DHT22;15961;54.678;9.110;2022-07-10T05:47:31;14.30;99.90
28823;DHT22;15961;54.678;9.110;2022-07-10T05:49:56;14.40;99.90
28823;DHT22;15961;54.678;9.110;2022-07-10T05:52:22;14.40;99.90
28823;DHT22;15961;54.678;9.110;2022-07-10T05:54:47;14.50;99.90
28823;DHT22;15961;54.678;9.110;2022-07-10T05:57:13;14.60;99.90
28823;DHT22;15961;54.678;9.110;2022-07-10T05:59:38;14.60;99.90
28823;DHT22;15961;54.678;9.110;2022-07-10T06:02:04;14.70;99.90
28823;DHT22;15961;54.678;9.110;2022-07-10T06:04:30;14.60;99.90
28823;DHT22;15961;54.678;9.110;2022-07-10T06:06:56;14.60;99.90
28823;DHT22;15961;54.678;9.110;2022-07-10T06:09:21;14.70;99.90
28823;DHT22;15961;54.678;9.110;2022-07-10T06:11:47;14.70;99.90
28823;DHT22;15961;54.678;9.110;2022-07-10T06:14:14;14.70;99.90
28823;DHT22;15961;54.678;9.110;2022-07-10T06:16:39;14.70;99.90
28823;DHT22;15961;54.678;9.110;2022-07-10T06:19:05;14.90;99.90
28823;DHT22;15961;54.678;9.110;2022-07-10T06:21:31;15.00;99.90
28823;DHT22;15961;54.678;9.110;2022-07-10T06:23:57;15.10;99.90
28823;DHT22;15961;54.678;9.110;2022-07-10T06:26:22;15.20;99.90
28823;DHT22;15961;54.678;9.110;2022-07-10T06:28:48;15.10;99.90
28823;DHT22;15961;54.678;9.110;2022-07-10T06:31:13;15.10;99.90
28823;DHT22;15961;54.678;9.110;2022-07-10T06:33:39;14.90;99.90
28823;DHT22;15961;54.678;9.110;2022-07-10T06:36:05;14.80;99.90
28823;DHT22;15961;54.678;9.110;2022-07-10T06:38:31;14.70;99.90
28823;DHT22;15961;54.678;9.110;2022-07-10T06:40:57;14.80;99.90
28823;DHT22;15961;54.678;9.110;2022-07-10T06:43:22;14.60;99.90
28823;DHT22;15961;54.678;9.110;2022-07-10T06:45:48;14.60;99.90
28823;DHT22;15961;54.678;9.110;2022-07-10T06:48:14;14.60;99.90
28823;DHT22;15961;54.678;9.110;2022-07-10T06:50:40;14.80;99.90
28823;DHT22;15961;54.678;9.110;2022-07-10T06:53:06;15.00;99.90
28823;DHT22;15961;54.678;9.110;2022-07-10T06:55:32;15.30;99.90
28823;DHT22;15961;54.678;9.110;2022-07-10T06:57:58;15.50;99.90
28823;DHT22;15961;54.678;9.110;2022-07-10T07:00:24;15.70;99.90
28823;DHT22;15961;54.678;9.110;2022-07-10T07:02:49;15.90;99.90
28823;DHT22;15961;54.678;9.110;2022-07-10T07:05:15;16.20;99.90
28823;DHT22;15961;54.678;9.110;2022-07-10T07:07:41;16.50;99.90
28823;DHT22;15961;54.678;9.110;2022-07-10T07:10:08;16.70;99.90
28823;DHT22;15961;54.678;9.110;2022-07-10T07:12:34;16.90;99.90
28823;DHT22;15961;54.678;9.110;2022-07-10T07:14:59;16.90;99.90
28823;DHT22;15961;54.678;9.110;2022-07-10T07:17:25;16.70;99.90
28823;DHT22;15961;54.678;9.110;2022-07-10T07:19:59;16.70;99.90
28823;DHT22;15961;54.678;9.110;2022-07-10T07:22:43;16.80;99.90
28823;DHT22;15961;54.678;9.110;2022-07-10T07:25:27;16.90;99.90
28823;DHT22;15961;54.678;9.110;2022-07-10T07:27:53;16.80;99.90
28823;DHT22;15961;54.678;9.110;2022-07-10T07:30:19;16.60;99.90
28823;DHT22;15961;54.678;9.110;2022-07-10T07:32:45;16.70;99.90
28823;DHT22;15961;54.678;9.110;2022-07-10T07:35:12;16.80;99.90
28823;DHT22;15961;54.678;9.110;2022-07-10T07:37:44;16.90;99.90
28823;DHT22;15961;54.678;9.110;2022-07-10T07:40:12;17.00;99.90
28823;DHT22;15961;54.678;9.110;2022-07-10T07:42:38;16.70;99.90
28823;DHT22;15961;54.678;9.110;2022-07-10T07:45:05;16.30;99.90
28823;DHT22;15961;54.678;9.110;2022-07-10T07:47:43;16.10;99.90
28823;DHT22;15961;54.678;9.110;2022-07-10T07:50:09;16.00;99.90
28823;DHT22;15961;54.678;9.110;2022-07-10T07:52:35;15.90;99.90
28823;DHT22;15961;54.678;9.110;2022-07-10T07:55:01;15.90;99.90
28823;DHT22;15961;54.678;9.110;2022-07-10T07:57:27;15.90;99.90
28823;DHT22;15961;54.678;9.110;2022-07-10T07:59:53;16.10;99.90
28823;DHT22;15961;54.678;9.110;2022-07-10T08:02:18;16.40;99.90
28823;DHT22;15961;54.678;9.110;2022-07-10T08:04:44;16.40;99.90
28823;DHT22;15961;54.678;9.110;2022-07-10T08:07:09;16.90;99.90
28823;DHT22;15961;54.678;9.110;2022-07-10T08:09:35;17.20;99.90
28823;DHT22;15961;54.678;9.110;2022-07-10T08:12:01;17.00;99.90
28823;DHT22;15961;54.678;9.110;2022-07-10T08:14:26;16.70;99.90
28823;DHT22;15961;54.678;9.110;2022-07-10T08:16:52;16.80;99.90
28823;DHT22;15961;54.678;9.110;2022-07-10T08:19:17;16.70;99.90
28823;DHT22;15961;54.678;9.110;2022-07-10T08:21:43;16.50;99.90
28823;DHT22;15961;54.678;9.110;2022-07-10T08:24:09;16.60;99.90
28823;DHT22;15961;54.678;9.110;2022-07-10T08:26:34;16.80;99.90
28823;DHT22;15961;54.678;9.110;2022-07-10T08:29:00;16.60;99.90
28823;DHT22;15961;54.678;9.110;2022-07-10T08:31:26;16.60;99.90
28823;DHT22;15961;54.678;9.110;2022-07-10T08:33:51;16.50;99.90
28823;DHT22;15961;54.678;9.110;2022-07-10T08:36:18;16.50;99.90
28823;DHT22;15961;54.678;9.110;2022-07-10T08:38:43;16.80;99.90
28823;DHT22;15961;54.678;9.110;2022-07-10T08:41:11;16.90;99.90
28823;DHT22;15961;54.678;9.110;2022-07-10T08:43:38;16.60;99.90
28823;DHT22;15961;54.678;9.110;2022-07-10T08:46:04;16.40;99.90
28823;DHT22;15961;54.678;9.110;2022-07-10T08:48:32;16.20;99.90
28823;DHT22;15961;54.678;9.110;2022-07-10T08:51:04;16.40;99.90
28823;DHT22;15961;54.678;9.110;2022-07-10T08:53:32;16.70;99.90
28823;DHT22;15961;54.678;9.110;2022-07-10T08:55:58;16.80;99.90
28823;DHT22;15961;54.678;9.110;2022-07-10T08:58:26;16.80;99.90
28823;DHT22;15961;54.678;9.110;2022-07-10T09:00:52;16.70;99.90
28823;DHT22;15961;54.678;9.110;2022-07-10T09:03:19;16.60;99.90
28823;DHT22;15961;54.678;9.110;2022-07-10T09:05:44;16.60;99.90
28823;DHT22;15961;54.678;9.110;2022-07-10T09:08:23;16.70;99.90
28823;DHT22;15961;54.678;9.110;2022-07-10T09:10:49;16.80;99.90
28823;DHT22;15961;54.678;9.110;2022-07-10T09:13:16;16.70;99.90
28823;DHT22;15961;54.678;9.110;2022-07-10T09:15:48;16.60;99.90
28823;DHT22;15961;54.678;9.110;2022-07-10T09:18:19;16.60;99.90
28823;DHT22;15961;54.678;9.110;2022-07-10T09:20:47;16.40;99.90
28823;DHT22;15961;54.678;9.110;2022-07-10T09:23:21;16.50;99.90
28823;DHT22;15961;54.678;9.110;2022-07-10T09:25:47;16.50;99.90
28823;DHT22;15961;54.678;9.110;2022-07-10T09:28:22;16.60;99.90
28823;DHT22;15961;54.678;9.110;2022-07-10T09:30:48;16.70;99.90
28823;DHT22;15961;54.678;9.110;2022-07-10T09:33:27;16.70;99.90
28823;DHT22;15961;54.678;9.110;2022-07-10T09:41:25;16.50;99.90
28823;DHT22;15961;54.678;9.110;2022-07-10T09:44:05;16.50;99.90
28823;DHT22;15961;54.678;9.110;2022-07-10T09:46:38;16.70;99.90
28823;DHT22;15961;54.678;9.110;2022-07-10T09:49:14;17.00;99.90
28823;DHT22;15961;54.678;9.110;2022-07-10T09:51:41;17.10;99.90
28823;DHT22;15961;54.678;9.110;2022-07-10T09:54:08;17.10;99.90
28823;DHT22;15961;54.678;9.110;2022-07-10T09:56:40;17.00;99.90
28823;DHT22;15961;54.678;9.110;2022-07-10T09:59:11;17.00;99.90
28823;DHT22;15961;54.678;9.110;2022-07-10T10:01:57;16.80;99.90
28823;DHT22;15961;54.678;9.110;2022-07-10T10:04:25;16.80;99.90
28823;DHT22;15961;54.678;9.110;2022-07-10T10:06:56;17.20;99.90
28823;DHT22;15961;54.678;9.110;2022-07-10T10:09:32;17.60;99.90
28823;DHT22;15961;54.678;9.110;2022-07-10T10:12:17;17.70;99.90
28823;DHT22;15961;54.678;9.110;2022-07-10T10:14:47;17.70;99.90
28823;DHT22;15961;54.678;9.110;2022-07-10T10:17:13;17.70;99.90
28823;DHT22;15961;54.678;9.110;2022-07-10T10:19:41;17.90;99.90
28823;DHT22;15961;54.678;9.110;2022-07-10T10:22:26;17.80;99.90
28823;DHT22;15961;54.678;9.110;2022-07-10T10:24:53;17.50;99.90
28823;DHT22;15961;54.678;9.110;2022-07-10T10:27:20;17.70;99.90
28823;DHT22;15961;54.678;9.110;2022-07-10T10:29:48;18.00;99.90
28823;DHT22;15961;54.678;9.110;2022-07-10T10:32:14;17.80;99.90
28823;DHT22;15961;54.678;9.110;2022-07-10T10:34:44;17.90;99.90
28823;DHT22;15961;54.678;9.110;2022-07-10T10:39:58;18.00;99.90
28823;DHT22;15961;54.678;9.110;2022-07-10T10:42:40;18.30;99.90
28823;DHT22;15961;54.678;9.110;2022-07-10T10:45:31;18.30;99.90
28823;DHT22;15961;54.678;9.110;2022-07-10T10:48:08;18.00;99.90
28823;DHT22;15961;54.678;9.110;2022-07-10T10:50:47;17.90;99.90
28823;DHT22;15961;54.678;9.110;2022-07-10T10:53:17;17.70;99.90
28823;DHT22;15961;54.678;9.110;2022-07-10T10:58:43;17.30;99.90
28823;DHT22;15961;54.678;9.110;2022-07-10T11:01:28;17.20;99.90
28823;DHT22;15961;54.678;9.110;2022-07-10T11:04:17;17.40;99.90
28823;DHT22;15961;54.678;9.110;2022-07-10T11:06:48;17.50;99.90
28823;DHT22;15961;54.678;9.110;2022-07-10T11:09:29;17.30;99.90
28823;DHT22;15961;54.678;9.110;2022-07-10T11:12:05;17.00;99.90
28823;DHT22;15961;54.678;9.110;2022-07-10T11:14:33;16.80;99.90
28823;DHT22;15961;54.678;9.110;2022-07-10T11:16:59;17.20;99.90
28823;DHT22;15961;54.678;9.110;2022-07-10T11:19:29;17.60;99.90
28823;DHT22;15961;54.678;9.110;2022-07-10T11:30:46;18.50;99.90
28823;DHT22;15961;54.678;9.110;2022-07-10T11:33:12;17.90;99.90
28823;DHT22;15961;54.678;9.110;2022-07-10T11:35:39;17.40;99.90
28823;DHT22;15961;54.678;9.110;2022-07-10T11:38:05;17.30;99.90
28823;DHT22;15961;54.678;9.110;2022-07-10T11:40:38;17.20;99.90
28823;DHT22;15961;54.678;9.110;2022-07-10T11:43:04;17.30;99.90
28823;DHT22;15961;54.678;9.110;2022-07-10T11:45:33;17.70;99.90
28823;DHT22;15961;54.678;9.110;2022-07-10T11:48:00;18.20;99.90
28823;DHT22;15961;54.678;9.110;2022-07-10T11:50:26;18.20;99.90
28823;DHT22;15961;54.678;9.110;2022-07-10T11:52:53;17.90;99.90
28823;DHT22;15961;54.678;9.110;2022-07-10T11:55:21;18.00;99.90
28823;DHT22;15961;54.678;9.110;2022-07-10T11:57:47;18.00;99.90
28823;DHT22;15961;54.678;9.110;2022-07-10T12:00:24;18.20;99.90
28823;DHT22;15961;54.678;9.110;2022-07-10T12:02:50;18.10;99.90
28823;DHT22;15961;54.678;9.110;2022-07-10T12:05:42;17.80;99.90
28823;DHT22;15961;54.678;9.110;2022-07-10T12:08:07;17.70;99.90
28823;DHT22;15961;54.678;9.110;2022-07-10T12:10:34;18.10;99.90
28823;DHT22;15961;54.678;9.110;2022-07-10T12:13:08;18.90;99.90
28823;DHT22;15961;54.678;9.110;2022-07-10T12:15:42;18.80;99.90
28823;DHT22;15961;54.678;9.110;2022-07-10T12:18:09;18.80;99.90
28823;DHT22;15961;54.678;9.110;2022-07-10T12:20:39;19.10;99.90
28823;DHT22;15961;54.678;9.110;2022-07-10T12:23:08;19.00;99.90
28823;DHT22;15961;54.678;9.110;2022-07-10T12:25:35;19.20;99.90
28823;DHT22;15961;54.678;9.110;2022-07-10T12:28:01;19.30;99.90
28823;DHT22;15961;54.678;9.110;2022-07-10T12:30:38;19.50;99.90
28823;DHT22;15961;54.678;9.110;2022-07-10T12:33:14;19.40;99.90
28823;DHT22;15961;54.678;9.110;2022-07-10T12:35:58;19.20;99.90
28823;DHT22;15961;54.678;9.110;2022-07-10T12:38:27;18.90;99.90
28823;DHT22;15961;54.678;9.110;2022-07-10T12:41:10;18.70;99.90
28823;DHT22;15961;54.678;9.110;2022-07-10T12:43:37;18.80;99.90
28823;DHT22;15961;54.678;9.110;2022-07-10T12:48:41;19.30;99.90
28823;DHT22;15961;54.678;9.110;2022-07-10T12:51:23;18.90;99.90
28823;DHT22;15961;54.678;9.110;2022-07-10T12:53:50;18.90;99.90
28823;DHT22;15961;54.678;9.110;2022-07-10T12:56:31;19.00;99.90
28823;DHT22;15961;54.678;9.110;2022-07-10T12:58:58;19.80;99.90
28823;DHT22;15961;54.678;9.110;2022-07-10T13:01:26;20.10;99.90
28823;DHT22;15961;54.678;9.110;2022-07-10T13:03:59;19.90;99.90
28823;DHT22;15961;54.678;9.110;2022-07-10T13:06:29;19.70;99.90
28823;DHT22;15961;54.678;9.110;2022-07-10T13:08:55;19.40;99.90
28823;DHT22;15961;54.678;9.110;2022-07-10T13:11:21;19.20;99.90
28823;DHT22;15961;54.678;9.110;2022-07-10T13:13:47;19.90;99.90
28823;DHT22;15961;54.678;9.110;2022-07-10T13:16:13;20.20;99.90
28823;DHT22;15961;54.678;9.110;2022-07-10T13:18:42;20.90;99.90
28823;DHT22;15961;54.678;9.110;2022-07-10T13:21:08;21.00;99.90
28823;DHT22;15961;54.678;9.110;2022-07-10T13:23:34;20.30;99.90
28823;DHT22;15961;54.678;9.110;2022-07-10T13:25:59;19.90;99.90
28823;DHT22;15961;54.678;9.110;2022-07-10T13:28:27;19.90;99.90
28823;DHT22;15961;54.678;9.110;2022-07-10T13:30:53;20.50;99.90
28823;DHT22;15961;54.678;9.110;2022-07-10T13:33:19;21.00;99.90
28823;DHT22;15961;54.678;9.110;2022-07-10T13:35:45;21.00;99.90
28823;DHT22;15961;54.678;9.110;2022-07-10T13:38:10;20.90;99.90
28823;DHT22;15961;54.678;9.110;2022-07-10T13:40:37;20.60;99.90
28823;DHT22;15961;54.678;9.110;2022-07-10T13:43:03;20.70;99.90
28823;DHT22;15961;54.678;9.110;2022-07-10T13:45:30;20.90;99.90
28823;DHT22;15961;54.678;9.110;2022-07-10T13:47:59;21.50;99.90
28823;DHT22;15961;54.678;9.110;2022-07-10T13:50:25;21.70;99.90
28823;DHT22;15961;54.678;9.110;2022-07-10T13:52:51;21.30;99.90
28823;DHT22;15961;54.678;9.110;2022-07-10T13:55:17;20.90;99.90
28823;DHT22;15961;54.678;9.110;2022-07-10T13:57:43;20.60;99.90
28823;DHT22;15961;54.678;9.110;2022-07-10T14:00:09;20.80;99.90
28823;DHT22;15961;54.678;9.110;2022-07-10T14:02:35;20.70;99.90
28823;DHT22;15961;54.678;9.110;2022-07-10T14:05:01;21.10;99.90
28823;DHT22;15961;54.678;9.110;2022-07-10T14:07:27;21.20;99.90
28823;DHT22;15961;54.678;9.110;2022-07-10T14:09:52;21.50;99.90
28823;DHT22;15961;54.678;9.110;2022-07-10T14:12:18;21.60;99.90
28823;DHT22;15961;54.678;9.110;2022-07-10T14:14:43;21.00;99.90
28823;DHT22;15961;54.678;9.110;2022-07-10T14:17:09;20.10;99.90
28823;DHT22;15961;54.678;9.110;2022-07-10T14:19:35;19.80;99.90
28823;DHT22;15961;54.678;9.110;2022-07-10T14:22:00;19.40;99.90
28823;DHT22;15961;54.678;9.110;2022-07-10T14:24:26;19.60;99.90
28823;DHT22;15961;54.678;9.110;2022-07-10T14:26:52;20.00;99.90
28823;DHT22;15961;54.678;9.110;2022-07-10T14:29:19;20.00;99.90
28823;DHT22;15961;54.678;9.110;2022-07-10T14:31:45;19.90;99.90
28823;DHT22;15961;54.678;9.110;2022-07-10T14:34:15;20.20;99.90
28823;DHT22;15961;54.678;9.110;2022-07-10T14:36:40;20.40;99.90
28823;DHT22;15961;54.678;9.110;2022-07-10T14:39:06;20.70;99.90
28823;DHT22;15961;54.678;9.110;2022-07-10T14:41:31;20.50;99.90
28823;DHT22;15961;54.678;9.110;2022-07-10T14:43:57;21.00;99.90
28823;DHT22;15961;54.678;9.110;2022-07-10T14:46:23;21.20;99.90
28823;DHT22;15961;54.678;9.110;2022-07-10T14:48:50;21.40;99.90
28823;DHT22;15961;54.678;9.110;2022-07-10T14:51:15;21.40;99.90
28823;DHT22;15961;54.678;9.110;2022-07-10T14:53:41;21.00;99.90
28823;DHT22;15961;54.678;9.110;2022-07-10T14:56:08;20.80;99.90
28823;DHT22;15961;54.678;9.110;2022-07-10T14:58:34;21.00;99.90
28823;DHT22;15961;54.678;9.110;2022-07-10T15:00:59;20.80;99.90
28823;DHT22;15961;54.678;9.110;2022-07-10T15:03:26;20.30;99.90
28823;DHT22;15961;54.678;9.110;2022-07-10T15:05:52;20.50;99.90
28823;DHT22;15961;54.678;9.110;2022-07-10T15:08:22;21.00;99.90
28823;DHT22;15961;54.678;9.110;2022-07-10T15:10:48;21.20;99.90
28823;DHT22;15961;54.678;9.110;2022-07-10T15:13:14;21.00;99.90
28823;DHT22;15961;54.678;9.110;2022-07-10T15:15:40;21.30;99.90
28823;DHT22;15961;54.678;9.110;2022-07-10T15:18:06;21.60;99.90
28823;DHT22;15961;54.678;9.110;2022-07-10T15:20:32;21.30;99.90
28823;DHT22;15961;54.678;9.110;2022-07-10T15:22:58;21.40;99.90
28823;DHT22;15961;54.678;9.110;2022-07-10T15:25:24;21.60;99.90
28823;DHT22;15961;54.678;9.110;2022-07-10T15:27:52;21.30;99.90
28823;DHT22;15961;54.678;9.110;2022-07-10T15:30:18;21.60;99.90
28823;DHT22;15961;54.678;9.110;2022-07-10T15:32:44;21.50;99.90
28823;DHT22;15961;54.678;9.110;2022-07-10T15:35:11;21.10;99.90
28823;DHT22;15961;54.678;9.110;2022-07-10T15:37:37;20.40;99.90
28823;DHT22;15961;54.678;9.110;2022-07-10T15:40:03;19.70;99.90
28823;DHT22;15961;54.678;9.110;2022-07-10T15:42:28;19.10;99.90
28823;DHT22;15961;54.678;9.110;2022-07-10T15:44:54;19.30;99.90
28823;DHT22;15961;54.678;9.110;2022-07-10T15:47:19;19.80;99.90
28823;DHT22;15961;54.678;9.110;2022-07-10T15:49:45;20.00;99.90
28823;DHT22;15961;54.678;9.110;2022-07-10T15:52:11;20.20;99.90
28823;DHT22;15961;54.678;9.110;2022-07-10T15:54:36;20.70;99.90